Kegley, West Virginia
Current Conditions -  °F | °C
As of 2:52 AM on Friday 19 Dec 2014 (Local Time) from KBLF Reporting Station
Overcast Overcast  
Wind Chill: 20°   Ceiling: 4900
Heat Index: 29°   Visibility: 10mi
Dew Point: 23°   Wind: 9mph
Humidity: 78%   Direction: 280°W
Pressure: 30.1"   Gusts: NA
Location:  37.4°N, 81.13°W
Report Text: KBLF 190752Z AUTO 28008KT 10SM FEW010 OVC049 M02/M05 A3010 RMK AO2 SLP206 T10171050
Loading
Personal Weather Stations






























Interactive Weather Map New forecast layout! Learn more

10-Day Weather Forecast

Advertisements
Track Severe Weather on mobile